AL28 weather

CLOSED Huntsville Hospital Heliport
Huntsville, Alabama, United States

Public forecast

Using degrees Fahrenheit for public forecast. Weather courtesy of forecast.io.

Closest aviation weather report (METAR) to Huntsville Hospital Heliport

Closest report is Redstone Army Air Field, 6.5 nm (12.0 km) WSW. Retrieved 2019/10/15 01:58 UTC (49 minutes ago):

KHUA 150158Z AUTO 00000KT 10SM BKN260 17/12 A3009 RMK AO2 SLP189 T01650118

Closest aviation forecast (TAF) to Huntsville Hospital Heliport

Closest forecast is Huntsville International Carl T Jones Field, 11.6 nm (21.5 km) WSW. Retrieved 2019-10-15 00:22 UTC (2 hours ago):

TAF KHSV 142320Z 1500/1524 VRB02KT P6SM BKN050 OVC200 FM151500 15007KT P6SM SCT025 BKN035 FM151900 15007KT 5SM -RA BKN015 OVC025